Time,TemperatureF,DewpointF,PressureIn,WindDirection,WindDirectionDegrees,WindSpeedMPH,WindSpeedGustMPH,Humidity,HourlyPrecipIn,Conditions,Clouds,dailyrainin,SolarRadiationWatts/m^2,SoftwareType,DateUTC
2013-06-02 00:01:00,69.1,65.3,29.92,South,169,0.0,5.0,88,0.00,,,0.00,0.0,meteohub,2013-06-02 04:01:00,
2013-06-02 00:02:00,69.1,65.3,29.92,South,169,0.0,5.0,88,0.00,,,0.00,0.0,meteohub,2013-06-02 04:02:00,
2013-06-02 00:03:00,69.1,65.3,29.92,South,169,0.0,5.0,88,0.00,,,0.00,0.0,meteohub,2013-06-02 04:03:00,
2013-06-02 00:08:00,69.1,65.3,29.92,South,171,0.0,5.0,88,0.00,,,0.00,0.0,meteohub,2013-06-02 04:08:00,
2013-06-02 00:13:00,68.9,65.1,29.92,SSW,205,0.0,5.0,88,0.00,,,0.00,0.0,meteohub,2013-06-02 04:13:00,
2013-06-02 00:18:00,68.7,64.9,29.92,South,181,0.0,4.0,88,0.00,,,0.00,0.0,meteohub,2013-06-02 04:18:00,
2013-06-02 00:23:00,68.7,64.9,29.92,SSE,166,0.0,6.0,88,0.00,,,0.00,0.0,meteohub,2013-06-02 04:23:00,
2013-06-02 00:28:00,68.5,64.8,29.91,SSE,153,2.0,6.0,88,0.00,,,0.00,0.0,meteohub,2013-06-02 04:28:00,
2013-06-02 00:33:00,68.5,64.8,29.91,South,184,2.0,7.0,88,0.00,,,0.00,0.0,meteohub,2013-06-02 04:33:00,
2013-06-02 00:38:00,68.4,64.6,29.91,South,169,2.0,7.0,88,0.00,,,0.00,0.0,meteohub,2013-06-02 04:38:00,
2013-06-02 00:44:00,68.2,64.4,29.91,SE,124,0.0,9.0,88,0.00,,,0.00,0.0,meteohub,2013-06-02 04:44:00,
2013-06-02 00:49:00,68.2,64.8,29.91,South,171,0.0,9.0,89,0.00,,,0.00,0.0,meteohub,2013-06-02 04:49:00,
2013-06-02 00:54:00,68.0,64.4,29.91,SE,145,0.0,7.0,88,0.00,,,0.00,0.0,meteohub,2013-06-02 04:54:00,
2013-06-02 00:59:00,67.8,64.4,29.91,SE,145,0.0,7.0,89,0.00,,,0.00,0.0,meteohub,2013-06-02 04:59:00,
2013-06-02 01:04:00,67.8,64.4,29.91,SSE,153,0.0,7.0,89,0.00,,,0.00,0.0,meteohub,2013-06-02 05:04:00,
2013-06-02 01:09:00,67.6,64.2,29.91,SSE,153,1.0,7.0,89,0.00,,,0.00,0.0,meteohub,2013-06-02 05:09:00,
2013-06-02 01:14:00,67.6,64.2,29.91,SSE,155,1.0,4.0,89,0.00,,,0.00,0.0,meteohub,2013-06-02 05:14:00,
2013-06-02 01:19:00,67.6,64.2,29.91,SSE,159,2.0,4.0,89,0.00,,,0.00,0.0,meteohub,2013-06-02 05:19:00,
2013-06-02 01:25:00,67.5,64.0,29.90,SSW,199,1.0,6.0,89,0.00,,,0.00,0.0,meteohub,2013-06-02 05:25:00,
2013-06-02 01:30:00,67.5,64.0,29.90,South,184,3.0,7.0,89,0.00,,,0.00,0.0,meteohub,2013-06-02 05:30:00,
2013-06-02 01:35:00,67.3,63.9,29.90,SSW,194,1.0,8.0,89,0.00,,,0.00,0.0,meteohub,2013-06-02 05:35:00,
2013-06-02 01:40:00,67.3,63.9,29.90,South,172,0.0,8.0,89,0.00,,,0.00,0.0,meteohub,2013-06-02 05:40:00,
2013-06-02 01:45:00,67.3,64.2,29.90,SE,136,0.0,7.0,90,0.00,,,0.00,0.0,meteohub,2013-06-02 05:45:00,
2013-06-02 01:50:00,67.3,64.2,29.90,SE,144,0.0,5.0,90,0.00,,,0.00,0.0,meteohub,2013-06-02 05:50:00,
2013-06-02 01:55:00,67.3,64.2,29.90,South,169,0.0,4.0,90,0.00,,,0.00,0.0,meteohub,2013-06-02 05:55:00,
2013-06-02 02:00:00,67.1,64.0,29.90,South,178,0.0,7.0,90,0.00,,,0.00,0.0,meteohub,2013-06-02 06:00:00,
2013-06-02 02:05:00,67.1,64.0,29.89,SSE,157,4.0,7.0,90,0.00,,,0.00,0.0,meteohub,2013-06-02 06:05:00,
2013-06-02 02:11:00,66.9,63.9,29.89,SSE,157,0.0,6.0,90,0.00,,,0.00,0.0,meteohub,2013-06-02 06:11:00,
2013-06-02 02:16:00,66.7,63.7,29.89,SSE,153,4.0,6.0,90,0.00,,,0.00,0.0,meteohub,2013-06-02 06:16:00,
2013-06-02 02:21:00,66.7,63.7,29.89,SSE,159,2.0,6.0,90,0.00,,,0.00,0.0,meteohub,2013-06-02 06:21:00,
2013-06-02 02:26:00,66.6,63.5,29.89,SE,143,1.0,6.0,90,0.00,,,0.00,0.0,meteohub,2013-06-02 06:26:00,
2013-06-02 02:31:00,66.6,63.9,29.88,SE,144,1.0,6.0,91,0.00,,,0.00,0.0,meteohub,2013-06-02 06:31:00,
2013-06-02 02:36:00,66.4,63.7,29.88,SSE,165,1.0,6.0,91,0.00,,,0.00,0.0,meteohub,2013-06-02 06:36:00,
2013-06-02 02:41:00,66.2,63.9,29.88,SE,132,0.0,5.0,92,0.00,,,0.00,0.0,meteohub,2013-06-02 06:41:00,
2013-06-02 02:46:00,66.0,63.3,29.88,SE,133,0.0,5.0,91,0.00,,,0.00,0.0,meteohub,2013-06-02 06:46:00,
2013-06-02 02:52:00,66.0,63.3,29.88,SE,134,0.0,5.0,91,0.00,,,0.00,0.0,meteohub,2013-06-02 06:52:00,
2013-06-02 02:57:00,66.0,63.3,29.89,SE,134,0.0,4.0,91,0.00,,,0.00,0.0,meteohub,2013-06-02 06:57:00,
2013-06-02 03:02:00,65.8,63.5,29.88,SE,134,0.0,2.0,92,0.00,,,0.00,0.0,meteohub,2013-06-02 07:02:00,
2013-06-02 03:07:00,65.8,63.5,29.88,SE,134,0.0,0.0,92,0.00,,,0.00,0.0,meteohub,2013-06-02 07:07:00,
2013-06-02 03:12:00,65.7,63.3,29.88,SE,134,0.0,0.0,92,0.00,,,0.00,0.0,meteohub,2013-06-02 07:12:00,
2013-06-02 03:17:00,65.7,63.3,29.88,SE,134,0.0,1.0,92,0.00,,,0.00,0.0,meteohub,2013-06-02 07:17:00,
2013-06-02 03:22:00,65.7,63.3,29.88,SE,134,0.0,2.0,92,0.00,,,0.00,0.0,meteohub,2013-06-02 07:22:00,
2013-06-02 03:27:00,65.7,63.3,29.88,SE,139,0.0,2.0,92,0.00,,,0.00,0.0,meteohub,2013-06-02 07:27:00,
2013-06-02 03:32:00,65.5,63.1,29.88,SE,139,0.0,4.0,92,0.00,,,0.00,0.0,meteohub,2013-06-02 07:32:00,
2013-06-02 03:37:00,65.5,63.1,29.88,SE,140,0.0,4.0,92,0.00,,,0.00,0.0,meteohub,2013-06-02 07:37:00,
2013-06-02 03:42:00,65.5,63.1,29.88,SE,140,0.0,4.0,92,0.00,,,0.00,0.0,meteohub,2013-06-02 07:42:00,
2013-06-02 03:47:00,65.5,63.1,29.88,SE,140,0.0,4.0,92,0.00,,,0.00,0.0,meteohub,2013-06-02 07:47:00,
2013-06-02 03:52:00,65.3,63.1,29.88,SE,140,0.0,2.0,93,0.00,,,0.00,0.0,meteohub,2013-06-02 07:52:00,
2013-06-02 03:57:00,65.3,63.1,29.88,SE,140,0.0,1.0,93,0.00,,,0.00,0.0,meteohub,2013-06-02 07:57:00,
2013-06-02 04:02:00,65.1,63.0,29.88,SE,140,0.0,1.0,93,0.00,,,0.00,0.0,meteohub,2013-06-02 08:02:00,
2013-06-02 04:07:00,65.1,63.0,29.88,SE,140,0.0,2.0,93,0.00,,,0.00,0.0,meteohub,2013-06-02 08:07:00,
2013-06-02 04:12:00,65.1,63.0,29.88,SE,140,0.0,2.0,93,0.00,,,0.00,0.0,meteohub,2013-06-02 08:12:00,
2013-06-02 04:17:00,65.1,63.0,29.88,SE,140,0.0,1.0,93,0.00,,,0.00,0.0,meteohub,2013-06-02 08:17:00,
2013-06-02 04:22:00,64.9,62.8,29.88,SE,140,0.0,1.0,93,0.00,,,0.00,0.0,meteohub,2013-06-02 08:22:00,
2013-06-02 04:27:00,64.9,62.8,29.88,SE,140,1.0,4.0,93,0.00,,,0.00,0.0,meteohub,2013-06-02 08:27:00,
2013-06-02 04:32:00,64.8,62.6,29.88,SE,140,0.0,4.0,93,0.00,,,0.00,0.0,meteohub,2013-06-02 08:32:00,
2013-06-02 04:37:00,64.8,62.6,29.88,SE,140,0.0,4.0,93,0.00,,,0.00,0.0,meteohub,2013-06-02 08:37:00,
2013-06-02 04:43:00,64.8,62.6,29.88,SE,140,0.0,2.0,93,0.00,,,0.00,0.0,meteohub,2013-06-02 08:43:00,
2013-06-02 04:48:00,64.8,62.6,29.88,SE,140,0.0,2.0,93,0.00,,,0.00,0.0,meteohub,2013-06-02 08:48:00,
2013-06-02 04:53:00,64.6,62.4,29.89,SE,140,0.0,2.0,93,0.00,,,0.00,0.0,meteohub,2013-06-02 08:53:00,
2013-06-02 04:58:00,64.6,62.4,29.89,SE,140,0.0,2.0,93,0.00,,,0.00,0.0,meteohub,2013-06-02 08:58:00,
2013-06-02 05:03:00,64.4,62.4,29.88,SE,140,1.0,2.0,93,0.00,,,0.00,0.0,meteohub,2013-06-02 09:03:00,
2013-06-02 05:08:00,64.4,62.6,29.88,SE,140,1.0,4.0,94,0.00,,,0.00,0.0,meteohub,2013-06-02 09:08:00,
2013-06-02 05:13:00,64.2,62.4,29.88,SE,140,0.0,4.0,94,0.00,,,0.00,0.0,meteohub,2013-06-02 09:13:00,
2013-06-02 05:18:00,64.2,62.4,29.88,SE,140,0.0,4.0,94,0.00,,,0.00,0.0,meteohub,2013-06-02 09:18:00,
2013-06-02 05:24:00,64.0,62.2,29.88,SE,140,0.0,4.0,94,0.00,,,0.00,0.0,meteohub,2013-06-02 09:24:00,
2013-06-02 05:29:00,64.0,62.2,29.88,SE,140,0.0,4.0,94,0.00,,,0.00,7.0,meteohub,2013-06-02 09:29:00,
2013-06-02 05:34:00,64.0,62.2,29.88,SE,140,0.0,4.0,94,0.00,,,0.00,11.0,meteohub,2013-06-02 09:34:00,
2013-06-02 05:39:00,63.9,62.1,29.88,SE,140,0.0,1.0,94,0.00,,,0.00,14.0,meteohub,2013-06-02 09:39:00,
2013-06-02 05:44:00,63.7,61.9,29.88,SE,140,0.0,1.0,94,0.00,,,0.00,18.0,meteohub,2013-06-02 09:44:00,
2013-06-02 05:49:00,63.7,61.9,29.89,SE,140,0.0,1.0,94,0.00,,,0.00,23.0,meteohub,2013-06-02 09:49:00,
2013-06-02 05:54:00,63.7,61.9,29.89,SE,140,0.0,4.0,94,0.00,,,0.00,28.0,meteohub,2013-06-02 09:54:00,
2013-06-02 05:59:00,63.7,61.9,29.89,SE,140,0.0,4.0,94,0.00,,,0.00,30.0,meteohub,2013-06-02 09:59:00,
2013-06-02 06:04:00,63.9,62.1,29.88,SE,140,0.0,4.0,94,0.00,,,0.00,35.0,meteohub,2013-06-02 10:04:00,
2013-06-02 06:10:00,63.9,62.1,29.88,SE,140,0.0,2.0,94,0.00,,,0.00,53.0,meteohub,2013-06-02 10:10:00,
2013-06-02 06:15:00,64.0,62.2,29.88,SE,140,0.0,2.0,94,0.00,,,0.00,63.0,meteohub,2013-06-02 10:15:00,
2013-06-02 06:20:00,64.2,62.4,29.89,SE,140,0.0,2.0,94,0.00,,,0.00,72.0,meteohub,2013-06-02 10:20:00,
2013-06-02 06:25:00,64.4,62.6,29.88,SE,140,1.0,2.0,94,0.00,,,0.00,86.0,meteohub,2013-06-02 10:25:00,
2013-06-02 06:30:00,64.8,63.0,29.88,SE,140,0.0,2.0,94,0.00,,,0.00,100.0,meteohub,2013-06-02 10:30:00,
2013-06-02 06:35:00,64.9,62.8,29.88,SE,140,0.0,2.0,93,0.00,,,0.00,114.0,meteohub,2013-06-02 10:35:00,
2013-06-02 06:40:00,65.1,63.0,29.88,SE,140,0.0,2.0,93,0.00,,,0.00,130.0,meteohub,2013-06-02 10:40:00,
2013-06-02 06:45:00,65.3,63.1,29.88,SSE,162,0.0,2.0,93,0.00,,,0.00,146.0,meteohub,2013-06-02 10:45:00,
2013-06-02 06:51:00,65.5,63.3,29.88,SSE,162,2.0,5.0,93,0.00,,,0.00,160.0,meteohub,2013-06-02 10:51:00,
2013-06-02 06:56:00,65.8,63.7,29.89,SSE,163,2.0,5.0,93,0.00,,,0.00,178.0,meteohub,2013-06-02 10:56:00,
2013-06-02 07:01:00,66.0,63.9,29.89,SSE,163,0.0,5.0,93,0.00,,,0.00,197.0,meteohub,2013-06-02 11:01:00,
2013-06-02 07:06:00,66.4,64.0,29.88,South,179,1.0,5.0,92,0.00,,,0.00,213.0,meteohub,2013-06-02 11:06:00,
2013-06-02 07:11:00,66.7,64.4,29.88,South,176,4.0,5.0,92,0.00,,,0.00,227.0,meteohub,2013-06-02 11:11:00,
2013-06-02 07:16:00,67.5,65.1,29.88,South,189,3.0,5.0,92,0.00,,,0.00,241.0,meteohub,2013-06-02 11:16:00,
2013-06-02 07:21:00,67.8,65.1,29.88,South,169,1.0,8.0,91,0.00,,,0.00,257.0,meteohub,2013-06-02 11:21:00,
2013-06-02 07:27:00,68.2,65.5,29.88,SSW,213,6.0,8.0,91,0.00,,,0.00,271.0,meteohub,2013-06-02 11:27:00,
2013-06-02 07:32:00,68.4,65.3,29.88,South,175,2.0,8.0,90,0.00,,,0.00,283.0,meteohub,2013-06-02 11:32:00,
2013-06-02 07:37:00,68.5,65.1,29.88,SSE,153,7.0,8.0,89,0.00,,,0.00,297.0,meteohub,2013-06-02 11:37:00,
2013-06-02 07:42:00,68.5,65.1,29.88,SE,141,0.0,8.0,89,0.00,,,0.00,308.0,meteohub,2013-06-02 11:42:00,
2013-06-02 07:47:00,68.9,65.5,29.88,South,178,2.0,8.0,89,0.00,,,0.00,329.0,meteohub,2013-06-02 11:47:00,
2013-06-02 07:52:00,69.4,65.7,29.88,South,189,8.0,8.0,88,0.00,,,0.00,348.0,meteohub,2013-06-02 11:52:00,
2013-06-02 07:57:00,69.4,65.7,29.88,South,179,2.0,8.0,88,0.00,,,0.00,364.0,meteohub,2013-06-02 11:57:00,
2013-06-02 08:02:00,69.8,66.0,29.88,SW,218,6.0,8.0,88,0.00,,,0.00,374.0,meteohub,2013-06-02 12:02:00,
2013-06-02 08:07:00,70.3,66.2,29.88,SSW,203,11.0,11.0,87,0.00,,,0.00,383.0,meteohub,2013-06-02 12:07:00,
2013-06-02 08:12:00,70.2,66.0,29.87,SSW,211,5.0,12.0,87,0.00,,,0.00,404.0,meteohub,2013-06-02 12:12:00,
2013-06-02 08:17:00,70.2,66.0,29.88,South,181,4.0,12.0,87,0.00,,,0.00,418.0,meteohub,2013-06-02 12:17:00,
2013-06-02 08:22:00,70.2,66.0,29.88,SSE,160,5.0,12.0,87,0.00,,,0.00,427.0,meteohub,2013-06-02 12:22:00,
2013-06-02 08:27:00,70.2,65.8,29.88,South,172,2.0,9.0,86,0.00,,,0.00,448.0,meteohub,2013-06-02 12:27:00,
2013-06-02 08:32:00,70.0,66.0,29.88,SSE,159,2.0,9.0,87,0.00,,,0.00,462.0,meteohub,2013-06-02 12:32:00,
2013-06-02 08:37:00,70.3,66.2,29.88,SE,142,4.0,8.0,87,0.00,,,0.00,480.0,meteohub,2013-06-02 12:37:00,
2013-06-02 08:42:00,70.7,66.4,29.88,South,175,2.0,8.0,86,0.00,,,0.00,487.0,meteohub,2013-06-02 12:42:00,
2013-06-02 08:47:00,71.2,66.6,29.87,SSW,198,7.0,10.0,85,0.00,,,0.00,508.0,meteohub,2013-06-02 12:47:00,
2013-06-02 08:52:00,71.2,66.6,29.87,SSE,151,7.0,10.0,85,0.00,,,0.00,517.0,meteohub,2013-06-02 12:52:00,
2013-06-02 08:57:00,71.4,66.7,29.87,SE,145,4.0,9.0,85,0.00,,,0.00,534.0,meteohub,2013-06-02 12:57:00,
2013-06-02 09:02:00,71.8,67.1,29.87,SSE,147,0.0,9.0,85,0.00,,,0.00,547.0,meteohub,2013-06-02 13:02:00,
2013-06-02 09:07:00,72.1,67.1,29.87,SE,142,2.0,11.0,84,0.00,,,0.00,559.0,meteohub,2013-06-02 13:07:00,
2013-06-02 09:12:00,72.3,66.9,29.87,SSE,154,6.0,11.0,83,0.00,,,0.00,577.0,meteohub,2013-06-02 13:12:00,
2013-06-02 09:17:00,72.7,67.3,29.87,SW,215,3.0,11.0,83,0.00,,,0.00,589.0,meteohub,2013-06-02 13:17:00,
2013-06-02 09:22:00,72.7,67.3,29.87,SSW,195,4.0,9.0,83,0.00,,,0.00,603.0,meteohub,2013-06-02 13:22:00,
2013-06-02 09:27:00,73.2,67.5,29.86,SE,144,10.0,10.0,82,0.00,,,0.00,617.0,meteohub,2013-06-02 13:27:00,
2013-06-02 09:32:00,73.6,67.8,29.86,South,177,6.0,13.0,82,0.00,,,0.00,628.0,meteohub,2013-06-02 13:32:00,
2013-06-02 09:37:00,74.1,68.0,29.86,WSW,255,6.0,13.0,81,0.00,,,0.00,638.0,meteohub,2013-06-02 13:37:00,
2013-06-02 09:42:00,74.5,67.8,29.86,SW,225,3.0,13.0,80,0.00,,,0.00,652.0,meteohub,2013-06-02 13:42:00,
2013-06-02 09:47:00,74.3,67.6,29.86,SSW,202,4.0,13.0,80,0.00,,,0.00,664.0,meteohub,2013-06-02 13:47:00,
2013-06-02 09:52:00,74.1,67.6,29.86,South,187,9.0,14.0,80,0.00,,,0.00,675.0,meteohub,2013-06-02 13:52:00,
2013-06-02 09:57:00,73.8,67.6,29.86,SSW,202,0.0,14.0,81,0.00,,,0.00,680.0,meteohub,2013-06-02 13:57:00,
2013-06-02 10:02:00,73.8,68.0,29.86,SSE,155,4.0,13.0,82,0.00,,,0.00,696.0,meteohub,2013-06-02 14:02:00,
2013-06-02 10:07:00,74.8,68.5,29.86,ESE,118,8.0,12.0,81,0.00,,,0.00,708.0,meteohub,2013-06-02 14:07:00,
2013-06-02 10:12:00,75.7,68.7,29.86,SE,136,6.0,10.0,79,0.00,,,0.00,717.0,meteohub,2013-06-02 14:12:00,
2013-06-02 10:17:00,75.9,68.5,29.86,South,186,5.0,10.0,78,0.00,,,0.00,731.0,meteohub,2013-06-02 14:17:00,
2013-06-02 10:22:00,76.3,68.5,29.86,West,276,11.0,11.0,77,0.00,,,0.00,742.0,meteohub,2013-06-02 14:22:00,
2013-06-02 10:27:00,76.5,68.7,29.85,South,171,7.0,12.0,77,0.00,,,0.00,747.0,meteohub,2013-06-02 14:27:00,
2013-06-02 10:32:00,76.3,68.5,29.85,SSE,155,6.0,12.0,77,0.00,,,0.00,759.0,meteohub,2013-06-02 14:32:00,
2013-06-02 10:37:00,76.1,68.4,29.86,SSE,165,5.0,12.0,77,0.00,,,0.00,770.0,meteohub,2013-06-02 14:37:00,
2013-06-02 10:42:00,75.6,68.2,29.86,South,172,2.0,10.0,78,0.00,,,0.00,777.0,meteohub,2013-06-02 14:42:00,
2013-06-02 10:47:00,76.5,69.1,29.85,SSE,159,6.0,13.0,78,0.00,,,0.00,786.0,meteohub,2013-06-02 14:47:00,
2013-06-02 10:52:00,77.2,69.4,29.85,SSE,164,6.0,13.0,77,0.00,,,0.00,795.0,meteohub,2013-06-02 14:52:00,
2013-06-02 10:57:00,76.6,68.9,29.85,South,190,4.0,13.0,77,0.00,,,0.00,803.0,meteohub,2013-06-02 14:57:00,
2013-06-02 11:02:00,76.8,69.1,29.85,South,171,4.0,10.0,77,0.00,,,0.00,809.0,meteohub,2013-06-02 15:02:00,
2013-06-02 11:07:00,77.5,69.4,29.86,SSE,166,6.0,9.0,76,0.00,,,0.00,816.0,meteohub,2013-06-02 15:07:00,
2013-06-02 11:12:00,77.5,68.9,29.85,SSE,155,6.0,11.0,75,0.00,,,0.00,826.0,meteohub,2013-06-02 15:12:00,
2013-06-02 11:17:00,77.7,69.1,29.85,SSW,209,4.0,12.0,75,0.00,,,0.00,833.0,meteohub,2013-06-02 15:17:00,
2013-06-02 11:22:00,78.4,69.4,29.85,SSE,153,7.0,12.0,74,0.00,,,0.00,842.0,meteohub,2013-06-02 15:22:00,
2013-06-02 11:27:00,78.4,69.1,29.85,SSE,163,8.0,12.0,73,0.00,,,0.00,844.0,meteohub,2013-06-02 15:27:00,
2013-06-02 11:32:00,78.4,69.4,29.85,SSE,159,8.0,18.0,74,0.00,,,0.00,851.0,meteohub,2013-06-02 15:32:00,
2013-06-02 11:37:00,79.0,70.0,29.85,South,173,5.0,18.0,74,0.00,,,0.00,858.0,meteohub,2013-06-02 15:37:00,
2013-06-02 11:42:00,79.5,70.5,29.85,South,174,8.0,18.0,74,0.00,,,0.00,861.0,meteohub,2013-06-02 15:42:00,
2013-06-02 11:47:00,79.2,69.8,29.85,SSW,193,4.0,16.0,73,0.00,,,0.00,868.0,meteohub,2013-06-02 15:47:00,
2013-06-02 11:52:00,78.8,69.8,29.85,South,188,13.0,16.0,74,0.00,,,0.00,872.0,meteohub,2013-06-02 15:52:00,
2013-06-02 11:57:00,78.3,69.3,29.85,South,190,6.0,16.0,74,0.00,,,0.00,877.0,meteohub,2013-06-02 15:57:00,
2013-06-02 12:02:00,78.3,69.3,29.85,South,186,8.0,15.0,74,0.00,,,0.00,881.0,meteohub,2013-06-02 16:02:00,
2013-06-02 12:05:00,78.3,69.3,29.85,WSW,238,4.0,17.0,74,0.00,,,0.00,882.0,meteohub,2013-06-02 16:05:00,
2013-06-02 12:07:00,78.4,69.4,29.85,SSW,200,10.0,17.0,74,0.00,,,0.00,882.0,meteohub,2013-06-02 16:07:00,
2013-06-02 12:12:00,79.0,69.6,29.84,SSE,162,5.0,19.0,73,0.00,,,0.00,888.0,meteohub,2013-06-02 16:12:00,
2013-06-02 12:17:00,79.5,69.6,29.84,SSW,198,8.0,19.0,72,0.00,,,0.00,888.0,meteohub,2013-06-02 16:17:00,
2013-06-02 12:22:00,78.6,69.3,29.84,SSW,194,6.0,20.0,73,0.00,,,0.00,893.0,meteohub,2013-06-02 16:22:00,
2013-06-02 12:27:00,78.4,69.4,29.84,South,189,16.0,20.0,74,0.00,,,0.00,893.0,meteohub,2013-06-02 16:27:00,
2013-06-02 12:32:00,78.6,69.3,29.84,SSW,203,12.0,22.0,73,0.00,,,0.00,895.0,meteohub,2013-06-02 16:32:00,
2013-06-02 12:37:00,78.8,69.1,29.84,SSE,161,14.0,22.0,72,0.00,,,0.00,893.0,meteohub,2013-06-02 16:37:00,
2013-06-02 12:42:00,78.6,68.9,29.84,South,191,11.0,17.0,72,0.00,,,0.00,896.0,meteohub,2013-06-02 16:42:00,
2013-06-02 12:47:00,78.8,69.1,29.84,SSW,201,10.0,17.0,72,0.00,,,0.00,895.0,meteohub,2013-06-02 16:47:00,
2013-06-02 12:52:00,78.6,69.3,29.84,South,171,7.0,17.0,73,0.00,,,0.00,896.0,meteohub,2013-06-02 16:52:00,
2013-06-02 12:57:00,79.2,69.8,29.84,ESE,123,9.0,17.0,73,0.00,,,0.00,896.0,meteohub,2013-06-02 16:57:00,
2013-06-02 13:02:00,79.3,69.4,29.84,South,179,10.0,15.0,72,0.00,,,0.00,896.0,meteohub,2013-06-02 17:02:00,
2013-06-02 13:07:00,79.0,69.3,29.84,South,171,4.0,14.0,72,0.00,,,0.00,895.0,meteohub,2013-06-02 17:07:00,
2013-06-02 13:12:00,79.0,69.6,29.84,South,183,6.0,18.0,73,0.00,,,0.00,895.0,meteohub,2013-06-02 17:12:00,
2013-06-02 13:17:00,79.5,69.3,29.84,SSE,153,9.0,18.0,71,0.00,,,0.00,893.0,meteohub,2013-06-02 17:17:00,
2013-06-02 13:22:00,79.3,69.1,29.83,SSE,166,9.0,18.0,71,0.00,,,0.00,891.0,meteohub,2013-06-02 17:22:00,
2013-06-02 13:27:00,79.0,69.3,29.83,SSE,163,10.0,18.0,72,0.00,,,0.00,886.0,meteohub,2013-06-02 17:27:00,
2013-06-02 13:32:00,79.2,69.8,29.83,SSE,153,5.0,18.0,73,0.00,,,0.00,886.0,meteohub,2013-06-02 17:32:00,
2013-06-02 13:37:00,80.1,69.8,29.83,SW,226,10.0,19.0,71,0.00,,,0.00,882.0,meteohub,2013-06-02 17:37:00,
2013-06-02 13:42:00,79.9,70.0,29.83,South,169,8.0,19.0,72,0.00,,,0.00,879.0,meteohub,2013-06-02 17:42:00,
2013-06-02 13:47:00,80.1,69.8,29.83,SW,215,9.0,16.0,71,0.00,,,0.00,874.0,meteohub,2013-06-02 17:47:00,
2013-06-02 13:52:00,79.2,68.9,29.82,SSW,193,8.0,16.0,71,0.00,,,0.00,870.0,meteohub,2013-06-02 17:52:00,
2013-06-02 13:57:00,79.5,69.6,29.82,South,184,6.0,17.0,72,0.00,,,0.00,865.0,meteohub,2013-06-02 17:57:00,
2013-06-02 14:02:00,79.3,69.1,29.82,South,171,0.0,18.0,71,0.00,,,0.00,860.0,meteohub,2013-06-02 18:02:00,
2013-06-02 14:07:00,80.2,70.3,29.82,SSE,159,2.0,18.0,72,0.00,,,0.00,856.0,meteohub,2013-06-02 18:07:00,
2013-06-02 14:12:00,81.0,70.2,29.82,South,182,7.0,18.0,70,0.00,,,0.00,846.0,meteohub,2013-06-02 18:12:00,
2013-06-02 14:17:00,80.1,69.4,29.82,SSW,201,13.0,17.0,70,0.00,,,0.00,837.0,meteohub,2013-06-02 18:17:00,
2013-06-02 14:22:00,79.3,69.4,29.81,SE,140,8.0,17.0,72,0.00,,,0.00,835.0,meteohub,2013-06-02 18:22:00,
2013-06-02 14:27:00,79.7,69.8,29.81,South,185,9.0,21.0,72,0.00,,,0.00,830.0,meteohub,2013-06-02 18:27:00,
2013-06-02 14:32:00,79.9,70.0,29.81,South,187,4.0,21.0,72,0.00,,,0.00,821.0,meteohub,2013-06-02 18:32:00,
2013-06-02 14:37:00,79.5,69.3,29.81,South,189,9.0,17.0,71,0.00,,,0.00,816.0,meteohub,2013-06-02 18:37:00,
2013-06-02 14:42:00,79.5,69.6,29.81,ESE,121,11.0,17.0,72,0.00,,,0.00,807.0,meteohub,2013-06-02 18:42:00,
2013-06-02 14:47:00,79.2,69.3,29.81,SSW,199,7.0,18.0,72,0.00,,,0.00,798.0,meteohub,2013-06-02 18:47:00,
2013-06-02 14:52:00,78.4,69.1,29.81,SSW,201,5.0,18.0,73,0.00,,,0.00,791.0,meteohub,2013-06-02 18:52:00,
2013-06-02 14:57:00,78.6,69.3,29.81,South,190,7.0,18.0,73,0.00,,,0.00,782.0,meteohub,2013-06-02 18:57:00,
2013-06-02 15:02:00,79.0,68.7,29.81,SSW,208,8.0,18.0,71,0.00,,,0.00,779.0,meteohub,2013-06-02 19:02:00,
2013-06-02 15:07:00,78.4,69.1,29.81,SSW,198,6.0,18.0,73,0.00,,,0.00,770.0,meteohub,2013-06-02 19:07:00,
2013-06-02 15:12:00,78.4,69.1,29.80,SSW,192,4.0,17.0,73,0.00,,,0.00,765.0,meteohub,2013-06-02 19:12:00,
2013-06-02 15:17:00,79.3,68.7,29.80,South,178,5.0,17.0,70,0.00,,,0.00,761.0,meteohub,2013-06-02 19:17:00,
2013-06-02 15:22:00,79.2,68.5,29.80,SSE,161,8.0,18.0,70,0.00,,,0.00,710.0,meteohub,2013-06-02 19:22:00,
2013-06-02 15:27:00,78.4,68.7,29.81,South,185,6.0,18.0,72,0.00,,,0.00,691.0,meteohub,2013-06-02 19:27:00,
2013-06-02 15:32:00,79.0,69.3,29.81,SW,234,4.0,18.0,72,0.00,,,0.00,707.0,meteohub,2013-06-02 19:32:00,
2013-06-02 15:37:00,78.3,68.0,29.81,SSW,198,17.0,17.0,71,0.00,,,0.00,710.0,meteohub,2013-06-02 19:37:00,
2013-06-02 15:42:00,77.7,68.4,29.81,SSE,163,5.0,22.0,73,0.00,,,0.00,619.0,meteohub,2013-06-02 19:42:00,
2013-06-02 15:47:00,77.2,68.2,29.81,SSW,192,5.0,23.0,74,0.00,,,0.00,714.0,meteohub,2013-06-02 19:47:00,
2013-06-02 15:52:00,77.7,68.4,29.81,SW,225,7.0,23.0,73,0.00,,,0.00,671.0,meteohub,2013-06-02 19:52:00,
2013-06-02 15:57:00,76.8,67.8,29.80,South,186,5.0,23.0,74,0.00,,,0.00,417.0,meteohub,2013-06-02 19:57:00,
2013-06-02 16:02:00,76.6,67.6,29.80,SSW,200,8.0,19.0,74,0.00,,,0.00,490.0,meteohub,2013-06-02 20:02:00,
2013-06-02 16:07:00,76.8,68.4,29.80,SSW,202,14.0,19.0,75,0.00,,,0.00,573.0,meteohub,2013-06-02 20:07:00,
2013-06-02 16:12:00,76.8,67.8,29.80,SE,142,8.0,18.0,74,0.00,,,0.00,564.0,meteohub,2013-06-02 20:12:00,
2013-06-02 16:17:00,76.8,68.4,29.80,South,174,4.0,18.0,75,0.00,,,0.00,561.0,meteohub,2013-06-02 20:17:00,
2013-06-02 16:22:00,76.6,67.6,29.80,South,171,4.0,16.0,74,0.00,,,0.00,244.0,meteohub,2013-06-02 20:22:00,
2013-06-02 16:27:00,76.3,67.8,29.80,SSW,200,14.0,16.0,75,0.00,,,0.00,469.0,meteohub,2013-06-02 20:27:00,
2013-06-02 16:32:00,75.9,67.5,29.80,SSE,159,7.0,17.0,75,0.00,,,0.00,448.0,meteohub,2013-06-02 20:32:00,
2013-06-02 16:37:00,75.4,67.3,29.80,South,175,9.0,17.0,76,0.00,,,0.00,425.0,meteohub,2013-06-02 20:37:00,
2013-06-02 16:42:00,75.0,66.9,29.80,SW,217,6.0,17.0,76,0.00,,,0.00,417.0,meteohub,2013-06-02 20:42:00,
2013-06-02 16:47:00,74.8,66.7,29.79,South,171,12.0,18.0,76,0.00,,,0.00,406.0,meteohub,2013-06-02 20:47:00,
2013-06-02 16:52:00,74.5,66.7,29.79,SW,227,5.0,18.0,77,0.00,,,0.00,413.0,meteohub,2013-06-02 20:52:00,
2013-06-02 16:57:00,74.7,66.9,29.79,SSE,154,2.0,18.0,77,0.00,,,0.00,448.0,meteohub,2013-06-02 20:57:00,
2013-06-02 17:02:00,74.7,66.6,29.79,SW,236,5.0,18.0,76,0.00,,,0.00,462.0,meteohub,2013-06-02 21:02:00,
2013-06-02 17:07:00,74.7,66.6,29.79,SSE,166,6.0,18.0,76,0.00,,,0.00,410.0,meteohub,2013-06-02 21:07:00,
2013-06-02 17:12:00,74.1,66.4,29.79,SSE,153,10.0,18.0,77,0.00,,,0.00,397.0,meteohub,2013-06-02 21:12:00,
2013-06-02 17:17:00,73.8,66.4,29.79,SSE,165,16.0,19.0,78,0.00,,,0.00,309.0,meteohub,2013-06-02 21:17:00,
2013-06-02 17:22:00,73.0,65.8,29.78,SSW,206,9.0,23.0,78,0.00,,,0.00,195.0,meteohub,2013-06-02 21:22:00,
2013-06-02 17:27:00,72.7,65.5,29.78,South,186,11.0,25.0,78,0.00,,,0.00,137.0,meteohub,2013-06-02 21:27:00,
2013-06-02 17:32:00,72.1,65.3,29.78,SW,217,7.0,25.0,79,0.00,,,0.00,137.0,meteohub,2013-06-02 21:32:00,
2013-06-02 17:37:00,71.8,65.3,29.78,SSE,168,2.0,17.0,80,0.00,,,0.00,142.0,meteohub,2013-06-02 21:37:00,
2013-06-02 17:42:00,71.4,65.3,29.78,SSW,196,8.0,18.0,81,0.00,,,0.00,171.0,meteohub,2013-06-02 21:42:00,
2013-06-02 17:47:00,71.4,65.3,29.78,South,185,9.0,18.0,81,0.00,,,0.00,156.0,meteohub,2013-06-02 21:47:00,
2013-06-02 17:52:00,71.2,65.1,29.78,South,177,4.0,21.0,81,0.00,,,0.00,141.0,meteohub,2013-06-02 21:52:00,
2013-06-02 17:57:00,71.6,65.1,29.78,South,178,4.0,21.0,80,0.00,,,0.00,130.0,meteohub,2013-06-02 21:57:00,
2013-06-02 18:02:00,71.6,65.1,29.78,South,189,8.0,21.0,80,0.00,,,0.00,135.0,meteohub,2013-06-02 22:02:00,
2013-06-02 18:07:00,71.6,65.1,29.78,South,177,9.0,19.0,80,0.00,,,0.00,139.0,meteohub,2013-06-02 22:07:00,
2013-06-02 18:12:00,71.6,65.1,29.78,SSW,202,3.0,19.0,80,0.00,,,0.00,193.0,meteohub,2013-06-02 22:12:00,
2013-06-02 18:17:00,72.0,65.5,29.78,South,185,4.0,18.0,80,0.00,,,0.00,348.0,meteohub,2013-06-02 22:17:00,
2013-06-02 18:22:00,72.1,65.7,29.78,South,183,8.0,15.0,80,0.00,,,0.00,383.0,meteohub,2013-06-02 22:22:00,
2013-06-02 18:27:00,72.3,65.5,29.78,SW,230,3.0,13.0,79,0.00,,,0.00,214.0,meteohub,2013-06-02 22:27:00,
2013-06-02 18:32:00,72.1,65.3,29.79,SE,138,0.0,13.0,79,0.00,,,0.00,279.0,meteohub,2013-06-02 22:32:00,
2013-06-02 18:37:00,72.3,65.1,29.78,SSE,160,6.0,19.0,78,0.00,,,0.00,114.0,meteohub,2013-06-02 22:37:00,
2013-06-02 18:42:00,72.0,65.1,29.78,SSW,211,9.0,19.0,79,0.00,,,0.00,127.0,meteohub,2013-06-02 22:42:00,
2013-06-02 18:47:00,71.2,64.8,29.79,SSW,213,2.0,19.0,80,0.00,,,0.00,86.0,meteohub,2013-06-02 22:47:00,
2013-06-02 18:52:00,70.5,64.4,29.80,SSW,192,5.0,14.0,81,0.00,,,0.00,54.0,meteohub,2013-06-02 22:52:00,
2013-06-02 18:57:00,70.0,64.2,29.80,SSW,198,7.0,16.0,82,0.00,,,0.00,95.0,meteohub,2013-06-02 22:57:00,
2013-06-02 19:02:00,69.6,64.2,29.80,SSE,163,0.0,16.0,83,0.00,,,0.00,69.0,meteohub,2013-06-02 23:02:00,
2013-06-02 19:07:00,69.6,64.2,29.79,SSW,205,8.0,20.0,83,0.00,,,0.00,60.0,meteohub,2013-06-02 23:07:00,
2013-06-02 19:12:00,69.6,64.2,29.80,South,171,5.0,20.0,83,0.00,,,0.00,53.0,meteohub,2013-06-02 23:12:00,
2013-06-02 19:17:00,69.8,64.4,29.80,SW,235,4.0,16.0,83,0.00,,,0.00,54.0,meteohub,2013-06-02 23:17:00,
2013-06-02 19:22:00,70.2,64.8,29.80,West,269,3.0,15.0,83,0.00,,,0.00,56.0,meteohub,2013-06-02 23:22:00,
2013-06-02 19:27:00,70.2,64.8,29.80,SSW,194,6.0,14.0,83,0.00,,,0.00,72.0,meteohub,2013-06-02 23:27:00,
2013-06-02 19:32:00,70.2,64.8,29.80,South,176,13.0,14.0,83,0.00,,,0.00,47.0,meteohub,2013-06-02 23:32:00,
2013-06-02 19:37:00,70.2,64.8,29.79,South,184,3.0,16.0,83,0.00,,,0.00,37.0,meteohub,2013-06-02 23:37:00,
2013-06-02 19:42:00,70.0,64.9,29.80,WNW,298,5.0,16.0,84,0.00,,,0.00,28.0,meteohub,2013-06-02 23:42:00,
2013-06-02 19:47:00,70.0,64.6,29.80,WSW,243,0.0,16.0,83,0.00,,,0.00,21.0,meteohub,2013-06-02 23:47:00,
2013-06-02 19:52:00,70.0,64.6,29.80,SW,235,4.0,16.0,83,0.00,,,0.00,18.0,meteohub,2013-06-02 23:52:00,
2013-06-02 19:57:00,70.0,64.9,29.80,SW,224,6.0,9.0,84,0.00,,,0.00,14.0,meteohub,2013-06-02 23:57:00,
2013-06-02 20:02:00,70.0,64.9,29.80,SSW,205,8.0,9.0,84,0.00,,,0.00,11.0,meteohub,2013-06-03 00:02:00,
2013-06-02 20:07:00,69.6,64.6,29.80,SSW,198,5.0,11.0,84,0.00,,,0.00,7.0,meteohub,2013-06-03 00:07:00,
2013-06-02 20:12:00,69.8,64.8,29.81,NW,309,4.0,11.0,84,0.00,,,0.00,5.0,meteohub,2013-06-03 00:12:00,
2013-06-02 20:17:00,69.6,64.6,29.81,SSE,152,2.0,11.0,84,0.00,,,0.00,0.0,meteohub,2013-06-03 00:17:00,
2013-06-02 20:22:00,69.4,64.4,29.81,WNW,292,6.0,12.0,84,0.00,,,0.00,0.0,meteohub,2013-06-03 00:22:00,
2013-06-02 20:27:00,69.3,64.6,29.82,SSW,211,10.0,12.0,85,0.00,,,0.00,0.0,meteohub,2013-06-03 00:27:00,
2013-06-02 20:32:00,69.3,64.6,29.81,SSW,206,6.0,12.0,85,0.00,,,0.00,0.0,meteohub,2013-06-03 00:32:00,
2013-06-02 20:37:00,69.1,64.4,29.81,SSE,157,0.0,10.0,85,0.00,,,0.00,0.0,meteohub,2013-06-03 00:37:00,
2013-06-02 20:42:00,68.9,64.2,29.81,WSW,250,0.0,10.0,85,0.00,,,0.00,0.0,meteohub,2013-06-03 00:42:00,
2013-06-02 20:47:00,68.7,64.4,29.81,WSW,249,3.0,9.0,86,0.00,,,0.00,0.0,meteohub,2013-06-03 00:47:00,
2013-06-02 20:52:00,68.5,64.2,29.81,SW,222,2.0,8.0,86,0.00,,,0.00,0.0,meteohub,2013-06-03 00:52:00,
2013-06-02 20:57:00,68.5,64.2,29.82,SSE,148,4.0,8.0,86,0.00,,,0.00,0.0,meteohub,2013-06-03 00:57:00,
2013-06-02 21:02:00,68.4,64.0,29.81,SSW,197,3.0,8.0,86,0.00,,,0.00,0.0,meteohub,2013-06-03 01:02:00,
2013-06-02 21:07:00,68.4,64.0,29.82,South,169,1.0,8.0,86,0.00,,,0.00,0.0,meteohub,2013-06-03 01:07:00,
2013-06-02 21:12:00,68.2,64.2,29.82,South,173,0.0,8.0,87,0.00,,,0.00,0.0,meteohub,2013-06-03 01:12:00,
2013-06-02 21:17:00,68.2,64.2,29.82,South,184,2.0,8.0,87,0.00,,,0.00,0.0,meteohub,2013-06-03 01:17:00,
2013-06-02 21:22:00,68.0,64.0,29.82,South,169,0.0,7.0,87,0.00,,,0.00,0.0,meteohub,2013-06-03 01:22:00,
2013-06-02 21:27:00,67.8,63.9,29.82,South,180,2.0,7.0,87,0.00,,,0.00,0.0,meteohub,2013-06-03 01:27:00,
2013-06-02 21:32:00,67.8,63.9,29.82,South,171,0.0,5.0,87,0.00,,,0.00,0.0,meteohub,2013-06-03 01:32:00,
2013-06-02 21:37:00,67.8,63.9,29.82,South,186,2.0,5.0,87,0.00,,,0.00,0.0,meteohub,2013-06-03 01:37:00,
2013-06-02 21:42:00,67.6,63.7,29.83,South,171,0.0,6.0,87,0.00,,,0.00,0.0,meteohub,2013-06-03 01:42:00,
2013-06-02 21:47:00,67.6,63.7,29.82,South,171,0.0,6.0,87,0.00,,,0.00,0.0,meteohub,2013-06-03 01:47:00,
2013-06-02 21:52:00,67.5,63.5,29.83,South,183,1.0,6.0,87,0.00,,,0.00,0.0,meteohub,2013-06-03 01:52:00,
2013-06-02 21:57:00,67.5,63.9,29.83,South,183,0.0,8.0,88,0.00,,,0.00,0.0,meteohub,2013-06-03 01:57:00,
2013-06-02 22:02:00,67.5,63.9,29.83,South,183,0.0,8.0,88,0.00,,,0.00,0.0,meteohub,2013-06-03 02:02:00,
2013-06-02 22:07:00,67.5,63.9,29.83,South,183,0.0,8.0,88,0.00,,,0.00,0.0,meteohub,2013-06-03 02:07:00,
2013-06-02 22:12:00,67.5,63.9,29.83,SW,231,0.0,2.0,88,0.00,,,0.00,0.0,meteohub,2013-06-03 02:12:00,
2013-06-02 22:17:00,67.5,63.9,29.83,SW,233,0.0,5.0,88,0.00,,,0.00,0.0,meteohub,2013-06-03 02:17:00,
2013-06-02 22:22:00,67.5,63.9,29.83,South,171,4.0,5.0,88,0.00,,,0.00,0.0,meteohub,2013-06-03 02:22:00,
2013-06-02 22:27:00,67.3,63.7,29.83,SSW,192,0.0,6.0,88,0.00,,,0.00,0.0,meteohub,2013-06-03 02:27:00,
2013-06-02 22:32:00,67.3,63.7,29.82,South,173,4.0,6.0,88,0.00,,,0.00,0.0,meteohub,2013-06-03 02:32:00,
2013-06-02 22:37:00,67.3,63.7,29.82,SSE,167,2.0,6.0,88,0.00,,,0.00,0.0,meteohub,2013-06-03 02:37:00,
2013-06-02 22:42:00,67.3,63.7,29.82,SSE,168,1.0,6.0,88,0.00,,,0.00,0.0,meteohub,2013-06-03 02:42:00,
2013-06-02 22:47:00,67.3,63.7,29.82,SSE,168,0.0,6.0,88,0.00,,,0.00,0.0,meteohub,2013-06-03 02:47:00,
2013-06-02 22:52:00,67.3,63.7,29.82,SSE,155,0.0,6.0,88,0.00,,,0.00,0.0,meteohub,2013-06-03 02:52:00,
2013-06-02 22:57:00,67.5,64.0,29.83,SSE,155,0.0,4.0,89,0.00,,,0.00,0.0,meteohub,2013-06-03 02:57:00,
2013-06-02 23:03:00,67.5,63.9,29.83,SSE,160,0.0,4.0,88,0.00,,,0.00,0.0,meteohub,2013-06-03 03:03:00,
2013-06-02 23:08:00,67.5,63.9,29.83,SSW,205,1.0,5.0,88,0.00,,,0.00,0.0,meteohub,2013-06-03 03:08:00,
2013-06-02 23:13:00,67.5,63.9,29.82,SSE,161,1.0,5.0,88,0.00,,,0.00,0.0,meteohub,2013-06-03 03:13:00,
2013-06-02 23:18:00,67.5,63.9,29.82,SSE,161,4.0,5.0,88,0.00,,,0.00,0.0,meteohub,2013-06-03 03:18:00,
2013-06-02 23:23:00,67.3,63.7,29.83,South,185,3.0,5.0,88,0.00,,,0.00,0.0,meteohub,2013-06-03 03:23:00,
2013-06-02 23:28:00,67.3,63.9,29.83,SSE,160,1.0,6.0,89,0.00,,,0.00,0.0,meteohub,2013-06-03 03:28:00,
2013-06-02 23:33:00,67.1,63.7,29.83,SSE,166,0.0,6.0,89,0.00,,,0.00,0.0,meteohub,2013-06-03 03:33:00,
2013-06-02 23:38:00,67.1,63.7,29.83,SSE,166,0.0,6.0,89,0.00,,,0.00,0.0,meteohub,2013-06-03 03:38:00,
2013-06-02 23:44:00,66.9,63.5,29.83,South,169,4.0,5.0,89,0.00,,,0.00,0.0,meteohub,2013-06-03 03:44:00,
2013-06-02 23:49:00,66.9,63.5,29.82,SE,137,0.0,5.0,89,0.00,,,0.00,0.0,meteohub,2013-06-03 03:49:00,
2013-06-02 23:54:00,66.7,63.3,29.83,SSE,167,2.0,5.0,89,0.00,,,0.00,0.0,meteohub,2013-06-03 03:54:00,
2013-06-02 23:59:00,66.7,63.3,29.83,South,171,1.0,6.0,89,0.00,,,0.00,0.0,meteohub,2013-06-03 03:59:00,